Terminal Aerodrome Forecast
Issued by NWS

Home | Current Version | Previous Version | Text Only | Print | Product List | Glossary On
Versions: 1 2 3 4 5 6 7 8 9 10 11 12 13 14 15 16 17 18 19 20 21 22 23 24
000
FTUS45 KBYZ 040536
TAFLVM
TAF
KLVM 040536Z 0406/0506 VRB05KT P6SM VCSH SCT060 OVC100
      TEMPO 0406/0408 -SHRA BKN060
     FM041200 09011KT P6SM BKN100
     FM042300 09017G26KT P6SM VCSH BKN050 OVC100=

USA.gov is the U.S. government's official web portal to all federal, state and local government web resources and services.